Hlavní strana
METAR-TAF:

METAR-TAF

Letiště :

Virginia Highlands Airport

Abingdon, Virginie, Spojené státy americké

zeměpisná šířka: 36-41N, zeměpisná délka: 082-02W, výška: 631 m

Aktuální stav počasí

Zpráva byla vytvořena před 28 minutami, v 17:15 UTC
Západoseverozápadní vítr 12 kt s nárazy do 21 kt
Teplota 0°C
Vlhkost vzduchu 47%
Tlak 1018 hPa
Viditelnost: 16.1 km
Oblačno až skoro zataženo ve výšce 3600 ft

METAR: KVJI 271715Z AUTO 29012G21KT 10SM BKN036 00/M10 A3005 RMK AO2 T10041103

Čas: 12:43 (17:43 UTC)


TAF: chybějící

Stav a předpovědi počasí z více než 4 000 letišť (zprávy METAR a TAF).

Červené a žluté tečky na mapě představují dostupné meteorologické stanice.

Když kurzor umístíte na tečku, zobrazí se název stanice.

Pak kliknutím zobrazíte stav a předpověď počasí.

Chcete-li změnit mapu, kliknutím na zelené tlačítko se znaménkem +mapu přiblížíte, kliknutím na zelené tlačítko se znaménkem – mapu oddálíte a kliknutím na zelené šipky přejdete na sousední mapy.


METAR-TAF: